SWA2042 KTYS-KBNA
Flight info
| Callsign | SWA2042 |
|---|---|
| Flight time | 0h 36m |
| Altitude | 22000 |
| Route | EDDDY SWFFT3 |
| Aircraft | B738/M-SDE2E3FGHIRWXY/LB1 |
Departure
| Time | 2026-04-22 23:49 |
|---|---|
| Airport | McGhee Tyson Airport (KTYS) |
Arrival
| Time | 2026-04-23 00:26 |
|---|---|
| Airport | Nashville International Airport (KBNA) |
| Time | Latitude | Longitude | Altitude | Speed | Heading |
|---|---|---|---|---|---|
| 2026-04-22 23:38 | 35.80726 | -83.99110 | 960 ft | 0 kts | 134° |
| 2026-04-22 23:40 | 35.80728 | -83.99113 | 960 ft | 2 kts | 134° |
| 2026-04-22 23:40 | 35.80739 | -83.99127 | 956 ft | 2 kts | 134° |
| 2026-04-22 23:41 | 35.80751 | -83.99142 | 960 ft | 2 kts | 134° |
| 2026-04-22 23:41 | 35.80761 | -83.99157 | 956 ft | 2 kts | 112° |
| 2026-04-22 23:41 | 35.80763 | -83.99174 | 956 ft | 1 kts | 50° |
| 2026-04-22 23:41 | 35.80759 | -83.99180 | 958 ft | 0 kts | 42° |
| 2026-04-22 23:43 | 35.80760 | -83.99179 | 958 ft | 1 kts | 42° |
| 2026-04-22 23:44 | 35.80796 | -83.99145 | 959 ft | 12 kts | 35° |
| 2026-04-22 23:44 | 35.80864 | -83.99073 | 962 ft | 13 kts | 45° |
| 2026-04-22 23:44 | 35.80943 | -83.99040 | 962 ft | 12 kts | 0° |
| 2026-04-22 23:44 | 35.81017 | -83.99002 | 963 ft | 12 kts | 44° |
| 2026-04-22 23:45 | 35.81075 | -83.98931 | 963 ft | 12 kts | 44° |
| 2026-04-22 23:45 | 35.81132 | -83.98862 | 963 ft | 11 kts | 45° |
| 2026-04-22 23:45 | 35.81187 | -83.98795 | 964 ft | 11 kts | 44° |
| 2026-04-22 23:45 | 35.81240 | -83.98730 | 966 ft | 11 kts | 45° |
| 2026-04-22 23:46 | 35.81291 | -83.98666 | 965 ft | 10 kts | 45° |
| 2026-04-22 23:46 | 35.81342 | -83.98605 | 967 ft | 10 kts | 44° |
| 2026-04-22 23:46 | 35.81391 | -83.98546 | 966 ft | 10 kts | 44° |
| 2026-04-22 23:46 | 35.81439 | -83.98488 | 965 ft | 10 kts | 44° |
| 2026-04-22 23:47 | 35.81485 | -83.98432 | 969 ft | 9 kts | 45° |
| 2026-04-22 23:47 | 35.81530 | -83.98377 | 970 ft | 9 kts | 45° |
| 2026-04-22 23:47 | 35.81580 | -83.98333 | 979 ft | 9 kts | 12° |
| 2026-04-22 23:47 | 35.81630 | -83.98369 | 972 ft | 9 kts | 300° |
| 2026-04-22 23:48 | 35.81637 | -83.98412 | 971 ft | 2 kts | 248° |
| 2026-04-22 23:48 | 35.81626 | -83.98431 | 968 ft | 3 kts | 224° |
| 2026-04-22 23:48 | 35.81607 | -83.98453 | 968 ft | 5 kts | 224° |
| 2026-04-22 23:48 | 35.81529 | -83.98550 | 966 ft | 52 kts | 225° |
| 2026-04-22 23:49 | 35.81065 | -83.99115 | 962 ft | 132 kts | 225° |
| 2026-04-22 23:49 | 35.80252 | -84.00100 | 1046 ft | 189 kts | 225° |
| 2026-04-22 23:49 | 35.79344 | -84.01234 | 2222 ft | 170 kts | 227° |
| 2026-04-22 23:49 | 35.78554 | -84.02195 | 3403 ft | 170 kts | 223° |
| 2026-04-22 23:50 | 35.77511 | -84.03141 | 3806 ft | 202 kts | 213° |
| 2026-04-22 23:50 | 35.76094 | -84.03777 | 4074 ft | 239 kts | 192° |
| 2026-04-22 23:50 | 35.74319 | -84.03841 | 4509 ft | 267 kts | 173° |
| 2026-04-22 23:50 | 35.72636 | -84.02854 | 5443 ft | 276 kts | 139° |
| 2026-04-22 23:51 | 35.71581 | -84.00886 | 6424 ft | 282 kts | 107° |
| 2026-04-22 23:51 | 35.71488 | -83.98477 | 7175 ft | 289 kts | 80° |
| 2026-04-22 23:51 | 35.72243 | -83.96171 | 7025 ft | 292 kts | 56° |
| 2026-04-22 23:51 | 35.73682 | -83.94499 | 6943 ft | 282 kts | 24° |
| 2026-04-22 23:52 | 35.75536 | -83.94053 | 6893 ft | 269 kts | 350° |
| 2026-04-22 23:52 | 35.77263 | -83.94790 | 6899 ft | 261 kts | 333° |
| 2026-04-22 23:52 | 35.78926 | -83.95716 | 6886 ft | 263 kts | 333° |
| 2026-04-22 23:52 | 35.80597 | -83.96644 | 6883 ft | 264 kts | 333° |
| 2026-04-22 23:53 | 35.82270 | -83.97571 | 6877 ft | 264 kts | 333° |
| 2026-04-22 23:53 | 35.83943 | -83.98498 | 6878 ft | 263 kts | 333° |
| 2026-04-22 23:53 | 35.85363 | -83.99770 | 7387 ft | 250 kts | 302° |
| 2026-04-22 23:53 | 35.86016 | -84.01752 | 8092 ft | 253 kts | 283° |
| 2026-04-22 23:54 | 35.86332 | -84.03904 | 8785 ft | 259 kts | 276° |
| 2026-04-22 23:54 | 35.86469 | -84.06149 | 9496 ft | 265 kts | 271° |
| 2026-04-22 23:54 | 35.86466 | -84.08446 | 10192 ft | 271 kts | 268° |
| 2026-04-22 23:54 | 35.86356 | -84.10782 | 10841 ft | 276 kts | 265° |
| 2026-04-22 23:55 | 35.86161 | -84.13188 | 11415 ft | 291 kts | 264° |
| 2026-04-22 23:55 | 35.85887 | -84.15778 | 11595 ft | 319 kts | 262° |
| 2026-04-22 23:55 | 35.85535 | -84.18582 | 11802 ft | 344 kts | 261° |
| 2026-04-22 23:55 | 35.85114 | -84.21585 | 12076 ft | 364 kts | 261° |
| 2026-04-22 23:56 | 35.84645 | -84.24695 | 12656 ft | 373 kts | 260° |
| 2026-04-22 23:56 | 35.84153 | -84.27815 | 13382 ft | 378 kts | 260° |
| 2026-04-22 23:56 | 35.83635 | -84.31004 | 14085 ft | 383 kts | 260° |
| 2026-04-22 23:56 | 35.83099 | -84.34252 | 14746 ft | 387 kts | 260° |
| 2026-04-22 23:57 | 35.82555 | -84.37518 | 15451 ft | 391 kts | 260° |
| 2026-04-22 23:57 | 35.82002 | -84.40824 | 16109 ft | 395 kts | 259° |
| 2026-04-22 23:57 | 35.81442 | -84.44161 | 16770 ft | 399 kts | 259° |
| 2026-04-22 23:57 | 35.80876 | -84.47525 | 17400 ft | 404 kts | 259° |
| 2026-04-22 23:58 | 35.80303 | -84.50925 | 18025 ft | 408 kts | 259° |
| 2026-04-22 23:58 | 35.79723 | -84.54363 | 18620 ft | 412 kts | 259° |
| 2026-04-22 23:58 | 35.79137 | -84.57831 | 19161 ft | 415 kts | 259° |
| 2026-04-22 23:58 | 35.78547 | -84.61319 | 19735 ft | 417 kts | 259° |
| 2026-04-22 23:59 | 35.77954 | -84.64816 | 20107 ft | 419 kts | 259° |
| 2026-04-22 23:59 | 35.77349 | -84.68384 | 20140 ft | 430 kts | 259° |
| 2026-04-22 23:59 | 35.76729 | -84.72035 | 20163 ft | 441 kts | 259° |
| 2026-04-22 23:59 | 35.76094 | -84.75764 | 20164 ft | 448 kts | 259° |
| 2026-04-23 00:00 | 35.74812 | -84.83250 | 20136 ft | 443 kts | 259° |
| 2026-04-23 00:00 | 35.74177 | -84.86948 | 20140 ft | 441 kts | 259° |
| 2026-04-23 00:00 | 35.73542 | -84.90639 | 20137 ft | 440 kts | 259° |
| 2026-04-23 00:01 | 35.72908 | -84.94325 | 20151 ft | 441 kts | 259° |
| 2026-04-23 00:01 | 35.72279 | -84.97975 | 20154 ft | 442 kts | 259° |
| 2026-04-23 00:01 | 35.71639 | -85.01676 | 20147 ft | 443 kts | 259° |
| 2026-04-23 00:01 | 35.70996 | -85.05392 | 20163 ft | 444 kts | 259° |
| 2026-04-23 00:02 | 35.70361 | -85.09048 | 20138 ft | 430 kts | 259° |
| 2026-04-23 00:02 | 35.69741 | -85.12619 | 20151 ft | 426 kts | 259° |
| 2026-04-23 00:02 | 35.69121 | -85.16185 | 20155 ft | 426 kts | 259° |
| 2026-04-23 00:02 | 35.68502 | -85.19732 | 20138 ft | 421 kts | 259° |
| 2026-04-23 00:03 | 35.67874 | -85.23255 | 19925 ft | 421 kts | 259° |
| 2026-04-23 00:03 | 35.67233 | -85.26764 | 19685 ft | 420 kts | 258° |
| 2026-04-23 00:03 | 35.66586 | -85.30263 | 19441 ft | 418 kts | 258° |
| 2026-04-23 00:03 | 35.65943 | -85.33742 | 19204 ft | 417 kts | 258° |
| 2026-04-23 00:04 | 35.65300 | -85.37219 | 18963 ft | 415 kts | 258° |
| 2026-04-23 00:04 | 35.64661 | -85.40674 | 18733 ft | 414 kts | 258° |
| 2026-04-23 00:04 | 35.64024 | -85.44123 | 18500 ft | 413 kts | 258° |
| 2026-04-23 00:04 | 35.63397 | -85.47510 | 18220 ft | 412 kts | 258° |
| 2026-04-23 00:05 | 35.62760 | -85.50947 | 17975 ft | 411 kts | 258° |
| 2026-04-23 00:05 | 35.62127 | -85.54359 | 17731 ft | 410 kts | 258° |
| 2026-04-23 00:05 | 35.61494 | -85.57768 | 17445 ft | 409 kts | 258° |
| 2026-04-23 00:05 | 35.60859 | -85.61181 | 17166 ft | 409 kts | 258° |
| 2026-04-23 00:06 | 35.60227 | -85.64578 | 16923 ft | 407 kts | 258° |
| 2026-04-23 00:06 | 35.59595 | -85.67961 | 16681 ft | 405 kts | 258° |
| 2026-04-23 00:06 | 35.58967 | -85.71323 | 16449 ft | 403 kts | 258° |
| 2026-04-23 00:06 | 35.58338 | -85.74681 | 16217 ft | 402 kts | 258° |
| 2026-04-23 00:07 | 35.57713 | -85.78014 | 15986 ft | 400 kts | 258° |
| 2026-04-23 00:07 | 35.57089 | -85.81341 | 15759 ft | 399 kts | 258° |
| 2026-04-23 00:07 | 35.56472 | -85.84614 | 15524 ft | 387 kts | 258° |
| 2026-04-23 00:07 | 35.55968 | -85.87803 | 15286 ft | 373 kts | 268° |
| 2026-04-23 00:08 | 35.56261 | -85.90887 | 15095 ft | 358 kts | 288° |
| 2026-04-23 00:08 | 35.57248 | -85.93608 | 14899 ft | 342 kts | 304° |
| 2026-04-23 00:08 | 35.58703 | -85.95832 | 14718 ft | 328 kts | 313° |
| 2026-04-23 00:08 | 35.60279 | -85.97895 | 14555 ft | 336 kts | 315° |
| 2026-04-23 00:09 | 35.61912 | -86.00001 | 14361 ft | 343 kts | 314° |
| 2026-04-23 00:09 | 35.63545 | -86.02144 | 14156 ft | 343 kts | 314° |
| 2026-04-23 00:09 | 35.65156 | -86.04291 | 13961 ft | 341 kts | 314° |
| 2026-04-23 00:09 | 35.66737 | -86.06408 | 13747 ft | 340 kts | 313° |
| 2026-04-23 00:10 | 35.68335 | -86.08552 | 13542 ft | 341 kts | 313° |
| 2026-04-23 00:10 | 35.69938 | -86.10703 | 13344 ft | 341 kts | 313° |
| 2026-04-23 00:10 | 35.71541 | -86.12902 | 13146 ft | 340 kts | 310° |
| 2026-04-23 00:10 | 35.72973 | -86.15165 | 12918 ft | 339 kts | 307° |
| 2026-04-23 00:11 | 35.74359 | -86.17506 | 12732 ft | 337 kts | 306° |
| 2026-04-23 00:11 | 35.75725 | -86.19845 | 12534 ft | 335 kts | 306° |
| 2026-04-23 00:11 | 35.77088 | -86.22168 | 12342 ft | 333 kts | 306° |
| 2026-04-23 00:11 | 35.78447 | -86.24469 | 12146 ft | 332 kts | 306° |
| 2026-04-23 00:12 | 35.79806 | -86.26756 | 11950 ft | 330 kts | 306° |
| 2026-04-23 00:12 | 35.81164 | -86.29035 | 11767 ft | 328 kts | 305° |
| 2026-04-23 00:12 | 35.82510 | -86.31289 | 11574 ft | 328 kts | 305° |
| 2026-04-23 00:12 | 35.83859 | -86.33546 | 11397 ft | 326 kts | 305° |
| 2026-04-23 00:13 | 35.85205 | -86.35799 | 11208 ft | 326 kts | 305° |
| 2026-04-23 00:13 | 35.86549 | -86.38050 | 11036 ft | 326 kts | 305° |
| 2026-04-23 00:13 | 35.87890 | -86.40296 | 10856 ft | 326 kts | 304° |
| 2026-04-23 00:13 | 35.89233 | -86.42550 | 10688 ft | 325 kts | 304° |
| 2026-04-23 00:14 | 35.90568 | -86.44787 | 10507 ft | 323 kts | 304° |
| 2026-04-23 00:14 | 35.91892 | -86.47007 | 10318 ft | 320 kts | 304° |
| 2026-04-23 00:14 | 35.93209 | -86.49217 | 10161 ft | 318 kts | 304° |
| 2026-04-23 00:14 | 35.94516 | -86.51414 | 9976 ft | 316 kts | 304° |
| 2026-04-23 00:15 | 35.95781 | -86.53539 | 9739 ft | 306 kts | 304° |
| 2026-04-23 00:15 | 35.97013 | -86.55609 | 9447 ft | 292 kts | 304° |
| 2026-04-23 00:15 | 35.98202 | -86.57578 | 9141 ft | 282 kts | 308° |
| 2026-04-23 00:15 | 35.99737 | -86.59029 | 8787 ft | 279 kts | 334° |
| 2026-04-23 00:16 | 36.01616 | -86.59530 | 8451 ft | 277 kts | 358° |
| 2026-04-23 00:16 | 36.03504 | -86.59130 | 8097 ft | 274 kts | 15° |
| 2026-04-23 00:16 | 36.05296 | -86.58398 | 7867 ft | 266 kts | 17° |
| 2026-04-23 00:16 | 36.07009 | -86.57687 | 7867 ft | 255 kts | 16° |
| 2026-04-23 00:17 | 36.08677 | -86.57004 | 7582 ft | 251 kts | 16° |
| 2026-04-23 00:17 | 36.10335 | -86.56335 | 7238 ft | 248 kts | 14° |
| 2026-04-23 00:17 | 36.11973 | -86.55759 | 6959 ft | 243 kts | 12° |
| 2026-04-23 00:17 | 36.13599 | -86.55226 | 6620 ft | 242 kts | 12° |
| 2026-04-23 00:18 | 36.15225 | -86.54699 | 6256 ft | 241 kts | 12° |
| 2026-04-23 00:18 | 36.16830 | -86.54181 | 5885 ft | 240 kts | 12° |
| 2026-04-23 00:18 | 36.18441 | -86.53656 | 5553 ft | 239 kts | 12° |
| 2026-04-23 00:18 | 36.20050 | -86.53137 | 5212 ft | 238 kts | 12° |
| 2026-04-23 00:19 | 36.21657 | -86.52626 | 4851 ft | 237 kts | 12° |
| 2026-04-23 00:19 | 36.23254 | -86.52117 | 4508 ft | 236 kts | 11° |
| 2026-04-23 00:19 | 36.24842 | -86.51618 | 4170 ft | 235 kts | 11° |
| 2026-04-23 00:19 | 36.26418 | -86.51140 | 3876 ft | 232 kts | 12° |
| 2026-04-23 00:20 | 36.27966 | -86.50653 | 3750 ft | 226 kts | 11° |
| 2026-04-23 00:20 | 36.29490 | -86.50191 | 3758 ft | 228 kts | 11° |
| 2026-04-23 00:20 | 36.31050 | -86.49706 | 3757 ft | 234 kts | 6° |
| 2026-04-23 00:20 | 36.32644 | -86.49947 | 3496 ft | 233 kts | 328° |
| 2026-04-23 00:21 | 36.33709 | -86.51331 | 3279 ft | 220 kts | 289° |
| 2026-04-23 00:21 | 36.33774 | -86.53139 | 3092 ft | 210 kts | 250° |
| 2026-04-23 00:21 | 36.33208 | -86.54805 | 3084 ft | 212 kts | 246° |
| 2026-04-23 00:21 | 36.32514 | -86.56423 | 3013 ft | 214 kts | 227° |
| 2026-04-23 00:22 | 36.31257 | -86.57356 | 3031 ft | 212 kts | 205° |
| 2026-04-23 00:22 | 36.29919 | -86.58116 | 3004 ft | 210 kts | 208° |
| 2026-04-23 00:22 | 36.28653 | -86.58921 | 3016 ft | 198 kts | 210° |
| 2026-04-23 00:22 | 36.27482 | -86.59697 | 3005 ft | 181 kts | 211° |
| 2026-04-23 00:23 | 36.26382 | -86.60444 | 3005 ft | 180 kts | 211° |
| 2026-04-23 00:23 | 36.25252 | -86.61103 | 2929 ft | 180 kts | 203° |
| 2026-04-23 00:23 | 36.24059 | -86.61623 | 2709 ft | 182 kts | 200° |
| 2026-04-23 00:23 | 36.22865 | -86.62103 | 2487 ft | 179 kts | 200° |
| 2026-04-23 00:24 | 36.21687 | -86.62575 | 2270 ft | 178 kts | 201° |
| 2026-04-23 00:24 | 36.20512 | -86.63047 | 2023 ft | 177 kts | 200° |
| 2026-04-23 00:24 | 36.19336 | -86.63520 | 1787 ft | 178 kts | 200° |
| 2026-04-23 00:24 | 36.18157 | -86.63994 | 1534 ft | 179 kts | 200° |
| 2026-04-23 00:25 | 36.16967 | -86.64473 | 1322 ft | 182 kts | 200° |
| 2026-04-23 00:25 | 36.15775 | -86.64953 | 1054 ft | 182 kts | 198° |
| 2026-04-23 00:25 | 36.14575 | -86.65434 | 836 ft | 182 kts | 200° |
| 2026-04-23 00:25 | 36.13372 | -86.65917 | 619 ft | 181 kts | 200° |
| 2026-04-23 00:26 | 36.12244 | -86.66376 | 577 ft | 131 kts | 198° |
| 2026-04-23 00:26 | 36.11797 | -86.66554 | 587 ft | 42 kts | 198° |
| 2026-04-23 00:26 | 36.11675 | -86.66625 | 594 ft | 13 kts | 225° |
| 2026-04-23 00:26 | 36.11649 | -86.66693 | 595 ft | 3 kts | 276° |
| 2026-04-23 00:27 | 36.11653 | -86.66715 | 594 ft | 1 kts | 286° |
| 2026-04-23 00:27 | 36.11660 | -86.66736 | 594 ft | 3 kts | 312° |
| 2026-04-23 00:27 | 36.11668 | -86.66738 | 594 ft | 0 kts | 351° |
| 2026-04-23 00:28 | 36.11674 | -86.66739 | 594 ft | 6 kts | 355° |
| 2026-04-23 00:28 | 36.11729 | -86.66727 | 592 ft | 9 kts | 22° |
| 2026-04-23 00:28 | 36.11810 | -86.66691 | 589 ft | 16 kts | 19° |
| 2026-04-23 00:28 | 36.11927 | -86.66646 | 586 ft | 18 kts | 19° |
| 2026-04-23 00:29 | 36.12018 | -86.66609 | 585 ft | 12 kts | 17° |
| 2026-04-23 00:29 | 36.12100 | -86.66576 | 580 ft | 13 kts | 18° |
| 2026-04-23 00:29 | 36.12198 | -86.66538 | 577 ft | 14 kts | 17° |
| 2026-04-23 00:29 | 36.12261 | -86.66529 | 573 ft | 9 kts | 342° |
| 2026-04-23 00:30 | 36.12290 | -86.66578 | 574 ft | 6 kts | 288° |
| 2026-04-23 00:30 | 36.12293 | -86.66590 | 580 ft | 0 kts | 287° |
| 2026-04-23 00:30 | 36.12294 | -86.66595 | 574 ft | 1 kts | 287° |